sensor_id;sensor_type;location;lat;lon;timestamp;temperature;humidity
3756;DHT22;1893;52.526;13.360;2022-12-29T00:01:16;8.00;1.00
3756;DHT22;1893;52.526;13.360;2022-12-29T00:03:41;8.00;1.00
3756;DHT22;1893;52.526;13.360;2022-12-29T00:06:07;8.00;1.00
3756;DHT22;1893;52.526;13.360;2022-12-29T00:08:33;8.00;1.00
3756;DHT22;1893;52.526;13.360;2022-12-29T00:11:17;8.10;1.00
3756;DHT22;1893;52.526;13.360;2022-12-29T00:13:46;8.10;1.00
3756;DHT22;1893;52.526;13.360;2022-12-29T00:16:31;8.10;1.00
3756;DHT22;1893;52.526;13.360;2022-12-29T00:18:57;8.10;1.00
3756;DHT22;1893;52.526;13.360;2022-12-29T00:21:24;8.10;1.00
3756;DHT22;1893;52.526;13.360;2022-12-29T00:24:28;8.10;1.00
3756;DHT22;1893;52.526;13.360;2022-12-29T00:29:47;8.20;99.90
3756;DHT22;1893;52.526;13.360;2022-12-29T00:32:32;8.20;99.90
3756;DHT22;1893;52.526;13.360;2022-12-29T00:35:28;8.20;99.90
3756;DHT22;1893;52.526;13.360;2022-12-29T00:37:57;8.20;99.90
3756;DHT22;1893;52.526;13.360;2022-12-29T00:40:42;8.40;99.90
3756;DHT22;1893;52.526;13.360;2022-12-29T00:43:26;8.20;99.90
3756;DHT22;1893;52.526;13.360;2022-12-29T00:46:10;8.20;1.00
3756;DHT22;1893;52.526;13.360;2022-12-29T00:48:36;8.20;59.10
3756;DHT22;1893;52.526;13.360;2022-12-29T00:51:20;8.20;99.90
3756;DHT22;1893;52.526;13.360;2022-12-29T00:53:45;8.10;99.90
3756;DHT22;1893;52.526;13.360;2022-12-29T00:56:11;8.10;99.90
3756;DHT22;1893;52.526;13.360;2022-12-29T00:58:36;8.10;1.00
3756;DHT22;1893;52.526;13.360;2022-12-29T01:01:07;8.10;1.00
3756;DHT22;1893;52.526;13.360;2022-12-29T01:03:34;8.10;1.00
3756;DHT22;1893;52.526;13.360;2022-12-29T01:06:01;8.00;1.00
3756;DHT22;1893;52.526;13.360;2022-12-29T01:08:28;8.00;1.00
3756;DHT22;1893;52.526;13.360;2022-12-29T01:11:01;8.10;1.00
3756;DHT22;1893;52.526;13.360;2022-12-29T01:13:27;8.10;1.00
3756;DHT22;1893;52.526;13.360;2022-12-29T01:15:53;8.00;1.00
3756;DHT22;1893;52.526;13.360;2022-12-29T01:18:20;8.10;1.00
3756;DHT22;1893;52.526;13.360;2022-12-29T01:20:46;8.10;1.00
3756;DHT22;1893;52.526;13.360;2022-12-29T01:23:11;8.10;1.00
3756;DHT22;1893;52.526;13.360;2022-12-29T01:25:37;8.10;1.00
3756;DHT22;1893;52.526;13.360;2022-12-29T01:28:03;8.10;99.90
3756;DHT22;1893;52.526;13.360;2022-12-29T01:30:28;8.20;99.90
3756;DHT22;1893;52.526;13.360;2022-12-29T01:32:54;8.20;99.90
3756;DHT22;1893;52.526;13.360;2022-12-29T01:35:20;8.20;99.90
3756;DHT22;1893;52.526;13.360;2022-12-29T01:37:45;8.20;99.90
3756;DHT22;1893;52.526;13.360;2022-12-29T01:40:11;8.30;99.90
3756;DHT22;1893;52.526;13.360;2022-12-29T01:42:37;8.20;1.00
3756;DHT22;1893;52.526;13.360;2022-12-29T01:45:09;8.20;1.00
3756;DHT22;1893;52.526;13.360;2022-12-29T01:47:57;8.20;1.00
3756;DHT22;1893;52.526;13.360;2022-12-29T01:50:28;8.10;1.00
3756;DHT22;1893;52.526;13.360;2022-12-29T01:53:03;8.10;1.00
3756;DHT22;1893;52.526;13.360;2022-12-29T01:55:34;8.10;1.00
3756;DHT22;1893;52.526;13.360;2022-12-29T01:58:04;8.10;49.80
3756;DHT22;1893;52.526;13.360;2022-12-29T02:00:30;8.00;99.90
3756;DHT22;1893;52.526;13.360;2022-12-29T02:02:56;8.00;99.90
3756;DHT22;1893;52.526;13.360;2022-12-29T02:07:51;8.00;1.00
3756;DHT22;1893;52.526;13.360;2022-12-29T02:10:21;8.00;1.00
3756;DHT22;1893;52.526;13.360;2022-12-29T02:12:47;8.00;1.00
3756;DHT22;1893;52.526;13.360;2022-12-29T02:15:13;7.90;1.00
3756;DHT22;1893;52.526;13.360;2022-12-29T02:20:31;7.90;1.00
3756;DHT22;1893;52.526;13.360;2022-12-29T02:42:22;8.20;93.00
3756;DHT22;1893;52.526;13.360;2022-12-29T02:45:24;8.30;99.90
3756;DHT22;1893;52.526;13.360;2022-12-29T02:50:44;8.50;99.90
3756;DHT22;1893;52.526;13.360;2022-12-29T02:53:16;8.50;99.90
3756;DHT22;1893;52.526;13.360;2022-12-29T02:56:03;8.60;99.90
3756;DHT22;1893;52.526;13.360;2022-12-29T02:58:29;8.60;99.90
3756;DHT22;1893;52.526;13.360;2022-12-29T03:01:24;8.80;99.90
3756;DHT22;1893;52.526;13.360;2022-12-29T03:04:28;8.70;99.90
3756;DHT22;1893;52.526;13.360;2022-12-29T03:12:30;8.90;99.90
3756;DHT22;1893;52.526;13.360;2022-12-29T03:18:41;9.00;99.90
3756;DHT22;1893;52.526;13.360;2022-12-29T03:24:17;9.10;99.90
3756;DHT22;1893;52.526;13.360;2022-12-29T03:26:45;9.20;99.90
3756;DHT22;1893;52.526;13.360;2022-12-29T03:29:12;9.10;99.90
3756;DHT22;1893;52.526;13.360;2022-12-29T03:31:40;9.30;99.90
3756;DHT22;1893;52.526;13.360;2022-12-29T03:34:09;9.20;99.90
3756;DHT22;1893;52.526;13.360;2022-12-29T03:36:53;9.30;99.90
3756;DHT22;1893;52.526;13.360;2022-12-29T03:39:23;9.30;99.90
3756;DHT22;1893;52.526;13.360;2022-12-29T03:41:51;9.30;99.90
3756;DHT22;1893;52.526;13.360;2022-12-29T03:44:20;9.30;99.90
3756;DHT22;1893;52.526;13.360;2022-12-29T03:46:46;9.30;99.90
3756;DHT22;1893;52.526;13.360;2022-12-29T03:49:12;9.30;99.90
3756;DHT22;1893;52.526;13.360;2022-12-29T03:51:37;9.20;99.90
3756;DHT22;1893;52.526;13.360;2022-12-29T03:54:03;9.20;99.90
3756;DHT22;1893;52.526;13.360;2022-12-29T03:56:29;9.20;99.90
3756;DHT22;1893;52.526;13.360;2022-12-29T03:58:54;9.20;99.90
3756;DHT22;1893;52.526;13.360;2022-12-29T04:01:20;9.20;99.90
3756;DHT22;1893;52.526;13.360;2022-12-29T04:03:45;9.30;99.90
3756;DHT22;1893;52.526;13.360;2022-12-29T04:06:11;9.40;99.90
3756;DHT22;1893;52.526;13.360;2022-12-29T04:08:37;9.40;99.90
3756;DHT22;1893;52.526;13.360;2022-12-29T04:11:02;9.40;99.90
3756;DHT22;1893;52.526;13.360;2022-12-29T04:13:28;9.50;99.90
3756;DHT22;1893;52.526;13.360;2022-12-29T04:15:54;9.50;99.90
3756;DHT22;1893;52.526;13.360;2022-12-29T04:18:20;9.60;99.90
3756;DHT22;1893;52.526;13.360;2022-12-29T04:20:45;9.60;99.90
3756;DHT22;1893;52.526;13.360;2022-12-29T04:23:27;9.60;99.90
3756;DHT22;1893;52.526;13.360;2022-12-29T04:25:53;9.60;99.90
3756;DHT22;1893;52.526;13.360;2022-12-29T04:28:19;9.60;99.90
3756;DHT22;1893;52.526;13.360;2022-12-29T04:30:46;9.60;99.90
3756;DHT22;1893;52.526;13.360;2022-12-29T04:33:12;9.60;99.90
3756;DHT22;1893;52.526;13.360;2022-12-29T04:35:37;9.60;99.90
3756;DHT22;1893;52.526;13.360;2022-12-29T04:38:03;9.60;99.90
3756;DHT22;1893;52.526;13.360;2022-12-29T04:40:29;9.60;99.90
3756;DHT22;1893;52.526;13.360;2022-12-29T04:42:55;9.80;99.90
3756;DHT22;1893;52.526;13.360;2022-12-29T04:45:20;9.60;99.90
3756;DHT22;1893;52.526;13.360;2022-12-29T04:47:46;9.60;99.90
3756;DHT22;1893;52.526;13.360;2022-12-29T04:50:12;9.60;99.90
3756;DHT22;1893;52.526;13.360;2022-12-29T04:52:37;9.60;99.90
3756;DHT22;1893;52.526;13.360;2022-12-29T04:55:04;9.60;99.90
3756;DHT22;1893;52.526;13.360;2022-12-29T04:57:29;9.60;99.90
3756;DHT22;1893;52.526;13.360;2022-12-29T04:59:55;9.60;99.90
3756;DHT22;1893;52.526;13.360;2022-12-29T05:02:21;9.60;99.90
3756;DHT22;1893;52.526;13.360;2022-12-29T05:04:46;9.60;99.90
3756;DHT22;1893;52.526;13.360;2022-12-29T05:07:13;9.80;99.90
3756;DHT22;1893;52.526;13.360;2022-12-29T05:09:38;9.70;99.90
3756;DHT22;1893;52.526;13.360;2022-12-29T05:12:04;9.70;99.90
3756;DHT22;1893;52.526;13.360;2022-12-29T05:14:30;9.70;99.90
3756;DHT22;1893;52.526;13.360;2022-12-29T05:16:55;9.70;99.90
3756;DHT22;1893;52.526;13.360;2022-12-29T05:19:21;9.70;99.90
3756;DHT22;1893;52.526;13.360;2022-12-29T05:21:46;9.70;99.90
3756;DHT22;1893;52.526;13.360;2022-12-29T05:24:12;9.70;99.90
3756;DHT22;1893;52.526;13.360;2022-12-29T05:26:38;9.70;99.90
3756;DHT22;1893;52.526;13.360;2022-12-29T05:29:03;9.70;99.90
3756;DHT22;1893;52.526;13.360;2022-12-29T05:31:29;9.80;99.90
3756;DHT22;1893;52.526;13.360;2022-12-29T05:33:55;9.80;99.90
3756;DHT22;1893;52.526;13.360;2022-12-29T05:36:20;9.90;99.90
3756;DHT22;1893;52.526;13.360;2022-12-29T05:38:46;9.90;99.90
3756;DHT22;1893;52.526;13.360;2022-12-29T05:41:12;9.90;99.90
3756;DHT22;1893;52.526;13.360;2022-12-29T05:43:37;9.90;99.90
3756;DHT22;1893;52.526;13.360;2022-12-29T05:46:03;10.00;99.90
3756;DHT22;1893;52.526;13.360;2022-12-29T05:48:29;10.00;99.90
3756;DHT22;1893;52.526;13.360;2022-12-29T05:50:54;10.00;99.90
3756;DHT22;1893;52.526;13.360;2022-12-29T05:53:20;10.00;99.90
3756;DHT22;1893;52.526;13.360;2022-12-29T05:55:47;10.10;99.90
3756;DHT22;1893;52.526;13.360;2022-12-29T05:58:14;10.10;99.90
3756;DHT22;1893;52.526;13.360;2022-12-29T06:00:40;10.10;99.90
3756;DHT22;1893;52.526;13.360;2022-12-29T06:03:05;10.20;99.90
3756;DHT22;1893;52.526;13.360;2022-12-29T06:05:31;10.20;99.90
3756;DHT22;1893;52.526;13.360;2022-12-29T06:07:57;10.20;99.90
3756;DHT22;1893;52.526;13.360;2022-12-29T06:10:22;10.30;99.90
3756;DHT22;1893;52.526;13.360;2022-12-29T06:12:48;10.30;99.90
3756;DHT22;1893;52.526;13.360;2022-12-29T06:15:13;10.30;99.90
3756;DHT22;1893;52.526;13.360;2022-12-29T06:17:39;10.40;99.90
3756;DHT22;1893;52.526;13.360;2022-12-29T06:20:07;10.40;99.90
3756;DHT22;1893;52.526;13.360;2022-12-29T06:22:32;10.50;99.90
3756;DHT22;1893;52.526;13.360;2022-12-29T06:24:58;10.50;99.90
3756;DHT22;1893;52.526;13.360;2022-12-29T06:27:24;10.50;99.90
3756;DHT22;1893;52.526;13.360;2022-12-29T06:29:50;10.50;99.90
3756;DHT22;1893;52.526;13.360;2022-12-29T06:32:16;10.50;99.90
3756;DHT22;1893;52.526;13.360;2022-12-29T06:34:41;10.50;99.90
3756;DHT22;1893;52.526;13.360;2022-12-29T06:37:07;10.60;99.90
3756;DHT22;1893;52.526;13.360;2022-12-29T06:39:32;10.60;99.90
3756;DHT22;1893;52.526;13.360;2022-12-29T06:41:58;10.60;99.90
3756;DHT22;1893;52.526;13.360;2022-12-29T06:44:24;10.60;99.90
3756;DHT22;1893;52.526;13.360;2022-12-29T06:46:50;10.60;99.90
3756;DHT22;1893;52.526;13.360;2022-12-29T06:49:16;10.60;99.90
3756;DHT22;1893;52.526;13.360;2022-12-29T06:51:42;10.60;99.90
3756;DHT22;1893;52.526;13.360;2022-12-29T06:54:07;10.60;99.90
3756;DHT22;1893;52.526;13.360;2022-12-29T06:56:33;10.60;99.90
3756;DHT22;1893;52.526;13.360;2022-12-29T06:58:59;10.70;99.90
3756;DHT22;1893;52.526;13.360;2022-12-29T07:01:27;10.60;99.90
3756;DHT22;1893;52.526;13.360;2022-12-29T07:03:53;10.50;99.90
3756;DHT22;1893;52.526;13.360;2022-12-29T07:06:18;10.50;99.90
3756;DHT22;1893;52.526;13.360;2022-12-29T07:08:44;10.50;99.90
3756;DHT22;1893;52.526;13.360;2022-12-29T07:11:10;10.50;99.90
3756;DHT22;1893;52.526;13.360;2022-12-29T07:13:36;10.40;99.90
3756;DHT22;1893;52.526;13.360;2022-12-29T07:16:09;10.40;99.90
3756;DHT22;1893;52.526;13.360;2022-12-29T07:18:35;10.40;99.90
3756;DHT22;1893;52.526;13.360;2022-12-29T07:21:01;10.30;99.90
3756;DHT22;1893;52.526;13.360;2022-12-29T07:23:27;10.40;99.90
3756;DHT22;1893;52.526;13.360;2022-12-29T07:26:07;10.40;99.90
3756;DHT22;1893;52.526;13.360;2022-12-29T07:28:34;10.40;99.90
3756;DHT22;1893;52.526;13.360;2022-12-29T07:31:00;10.30;99.90
3756;DHT22;1893;52.526;13.360;2022-12-29T07:33:28;10.30;99.90
3756;DHT22;1893;52.526;13.360;2022-12-29T07:35:54;10.30;99.90
3756;DHT22;1893;52.526;13.360;2022-12-29T07:38:20;10.20;99.90
3756;DHT22;1893;52.526;13.360;2022-12-29T07:40:46;10.20;99.90
3756;DHT22;1893;52.526;13.360;2022-12-29T07:43:11;10.20;99.90
3756;DHT22;1893;52.526;13.360;2022-12-29T07:45:38;10.30;99.90
3756;DHT22;1893;52.526;13.360;2022-12-29T07:48:05;10.20;99.90
3756;DHT22;1893;52.526;13.360;2022-12-29T07:50:33;10.30;99.90
3756;DHT22;1893;52.526;13.360;2022-12-29T07:52:59;10.30;99.90
3756;DHT22;1893;52.526;13.360;2022-12-29T07:57:53;10.40;99.90
3756;DHT22;1893;52.526;13.360;2022-12-29T08:00:19;10.40;99.90
3756;DHT22;1893;52.526;13.360;2022-12-29T08:02:44;10.40;99.90
3756;DHT22;1893;52.526;13.360;2022-12-29T08:05:10;10.40;99.90
3756;DHT22;1893;52.526;13.360;2022-12-29T08:07:36;10.40;99.90
3756;DHT22;1893;52.526;13.360;2022-12-29T08:10:02;10.50;99.90
3756;DHT22;1893;52.526;13.360;2022-12-29T08:12:27;10.40;99.90
3756;DHT22;1893;52.526;13.360;2022-12-29T08:14:53;10.50;99.90
3756;DHT22;1893;52.526;13.360;2022-12-29T08:17:18;10.50;99.90
3756;DHT22;1893;52.526;13.360;2022-12-29T08:19:44;10.50;99.90
3756;DHT22;1893;52.526;13.360;2022-12-29T08:22:09;10.50;99.90
3756;DHT22;1893;52.526;13.360;2022-12-29T08:24:35;10.50;99.90
3756;DHT22;1893;52.526;13.360;2022-12-29T08:27:01;10.60;99.90
3756;DHT22;1893;52.526;13.360;2022-12-29T08:29:27;10.60;99.90
3756;DHT22;1893;52.526;13.360;2022-12-29T08:31:53;10.60;99.90
3756;DHT22;1893;52.526;13.360;2022-12-29T08:34:18;10.60;99.90
3756;DHT22;1893;52.526;13.360;2022-12-29T08:36:44;10.50;99.90
3756;DHT22;1893;52.526;13.360;2022-12-29T08:39:09;10.50;99.90
3756;DHT22;1893;52.526;13.360;2022-12-29T08:41:35;10.50;99.90
3756;DHT22;1893;52.526;13.360;2022-12-29T08:44:01;10.60;99.90
3756;DHT22;1893;52.526;13.360;2022-12-29T08:46:26;10.70;99.90
3756;DHT22;1893;52.526;13.360;2022-12-29T08:48:53;10.70;99.90
3756;DHT22;1893;52.526;13.360;2022-12-29T08:51:18;10.70;99.90
3756;DHT22;1893;52.526;13.360;2022-12-29T08:53:44;10.70;99.90
3756;DHT22;1893;52.526;13.360;2022-12-29T08:56:10;10.80;99.90
3756;DHT22;1893;52.526;13.360;2022-12-29T08:58:37;10.90;99.90
3756;DHT22;1893;52.526;13.360;2022-12-29T09:01:03;10.90;99.90
3756;DHT22;1893;52.526;13.360;2022-12-29T09:03:29;11.00;99.90
3756;DHT22;1893;52.526;13.360;2022-12-29T09:05:55;11.00;99.90
3756;DHT22;1893;52.526;13.360;2022-12-29T09:08:21;11.10;99.90
3756;DHT22;1893;52.526;13.360;2022-12-29T09:10:48;11.20;99.90
3756;DHT22;1893;52.526;13.360;2022-12-29T09:13:14;11.20;99.90
3756;DHT22;1893;52.526;13.360;2022-12-29T09:15:40;11.20;99.90
3756;DHT22;1893;52.526;13.360;2022-12-29T09:18:07;11.30;99.90
3756;DHT22;1893;52.526;13.360;2022-12-29T09:20:34;11.60;99.90
3756;DHT22;1893;52.526;13.360;2022-12-29T09:23:00;11.90;99.90
3756;DHT22;1893;52.526;13.360;2022-12-29T09:25:27;12.20;99.90
3756;DHT22;1893;52.526;13.360;2022-12-29T09:27:53;12.60;99.90
3756;DHT22;1893;52.526;13.360;2022-12-29T09:30:20;12.60;99.90
3756;DHT22;1893;52.526;13.360;2022-12-29T09:32:47;12.50;99.90
3756;DHT22;1893;52.526;13.360;2022-12-29T09:35:14;12.40;99.90
3756;DHT22;1893;52.526;13.360;2022-12-29T09:37:40;12.60;99.90
3756;DHT22;1893;52.526;13.360;2022-12-29T09:40:06;12.10;99.90
3756;DHT22;1893;52.526;13.360;2022-12-29T09:42:50;11.90;99.90
3756;DHT22;1893;52.526;13.360;2022-12-29T09:47:52;11.60;99.90
3756;DHT22;1893;52.526;13.360;2022-12-29T09:50:28;11.90;99.90
3756;DHT22;1893;52.526;13.360;2022-12-29T09:53:01;12.00;99.90
3756;DHT22;1893;52.526;13.360;2022-12-29T09:55:38;12.40;99.90
3756;DHT22;1893;52.526;13.360;2022-12-29T09:58:10;12.60;99.90
3756;DHT22;1893;52.526;13.360;2022-12-29T10:00:58;12.30;99.90
3756;DHT22;1893;52.526;13.360;2022-12-29T10:03:35;12.30;99.90
3756;DHT22;1893;52.526;13.360;2022-12-29T10:06:18;12.20;99.90
3756;DHT22;1893;52.526;13.360;2022-12-29T10:09:02;12.10;99.90
3756;DHT22;1893;52.526;13.360;2022-12-29T10:24:30;12.70;99.90
3756;DHT22;1893;52.526;13.360;2022-12-29T10:26:58;13.10;99.90
3756;DHT22;1893;52.526;13.360;2022-12-29T10:29:28;13.20;99.90
3756;DHT22;1893;52.526;13.360;2022-12-29T10:32:06;13.40;99.90
3756;DHT22;1893;52.526;13.360;2022-12-29T10:34:42;14.20;99.90
3756;DHT22;1893;52.526;13.360;2022-12-29T10:37:18;14.00;99.90
3756;DHT22;1893;52.526;13.360;2022-12-29T10:39:52;14.60;99.90
3756;DHT22;1893;52.526;13.360;2022-12-29T10:42:42;14.50;99.90
3756;DHT22;1893;52.526;13.360;2022-12-29T10:45:14;15.00;99.90
3756;DHT22;1893;52.526;13.360;2022-12-29T10:47:54;15.40;99.90
3756;DHT22;1893;52.526;13.360;2022-12-29T10:50:23;15.10;99.90
3756;DHT22;1893;52.526;13.360;2022-12-29T10:52:49;14.10;99.90
3756;DHT22;1893;52.526;13.360;2022-12-29T10:55:22;13.70;99.90
3756;DHT22;1893;52.526;13.360;2022-12-29T10:57:50;13.20;99.90
3756;DHT22;1893;52.526;13.360;2022-12-29T11:00:18;13.00;99.90
3756;DHT22;1893;52.526;13.360;2022-12-29T11:05:32;12.80;99.90
3756;DHT22;1893;52.526;13.360;2022-12-29T11:08:02;12.80;99.90
3756;DHT22;1893;52.526;13.360;2022-12-29T11:10:41;12.60;99.90
3756;DHT22;1893;52.526;13.360;2022-12-29T11:13:17;12.60;99.90
3756;DHT22;1893;52.526;13.360;2022-12-29T11:15:48;12.50;99.90
3756;DHT22;1893;52.526;13.360;2022-12-29T11:18:23;12.50;99.90
3756;DHT22;1893;52.526;13.360;2022-12-29T11:20:51;12.50;99.90
3756;DHT22;1893;52.526;13.360;2022-12-29T11:23:30;12.50;99.90
3756;DHT22;1893;52.526;13.360;2022-12-29T11:28:39;12.50;99.90
3756;DHT22;1893;52.526;13.360;2022-12-29T11:31:06;12.60;99.90
3756;DHT22;1893;52.526;13.360;2022-12-29T11:33:34;12.50;99.90
3756;DHT22;1893;52.526;13.360;2022-12-29T11:36:12;12.50;99.90
3756;DHT22;1893;52.526;13.360;2022-12-29T11:38:41;12.40;99.90
3756;DHT22;1893;52.526;13.360;2022-12-29T11:41:12;12.40;99.90
3756;DHT22;1893;52.526;13.360;2022-12-29T11:43:43;12.30;99.90
3756;DHT22;1893;52.526;13.360;2022-12-29T11:46:31;12.30;99.90
3756;DHT22;1893;52.526;13.360;2022-12-29T11:48:58;12.20;99.90
3756;DHT22;1893;52.526;13.360;2022-12-29T11:51:43;12.20;99.90
3756;DHT22;1893;52.526;13.360;2022-12-29T11:54:21;12.10;1.00
3756;DHT22;1893;52.526;13.360;2022-12-29T11:56:48;12.00;99.90
3756;DHT22;1893;52.526;13.360;2022-12-29T12:01:53;12.00;99.90
3756;DHT22;1893;52.526;13.360;2022-12-29T12:04:22;11.90;99.90
3756;DHT22;1893;52.526;13.360;2022-12-29T12:07:15;11.60;1.00
3756;DHT22;1893;52.526;13.360;2022-12-29T12:10:33;11.40;99.90
3756;DHT22;1893;52.526;13.360;2022-12-29T12:12:48;11.00;1.00
3756;DHT22;1893;52.526;13.360;2022-12-29T12:15:27;10.80;99.90
3756;DHT22;1893;52.526;13.360;2022-12-29T12:18:14;10.70;1.00
3756;DHT22;1893;52.526;13.360;2022-12-29T12:20:53;10.60;99.90
3756;DHT22;1893;52.526;13.360;2022-12-29T12:29:22;10.50;1.00
3756;DHT22;1893;52.526;13.360;2022-12-29T12:31:55;10.50;1.00
3756;DHT22;1893;52.526;13.360;2022-12-29T12:34:36;10.50;99.90
3756;DHT22;1893;52.526;13.360;2022-12-29T12:40:25;10.50;99.90
3756;DHT22;1893;52.526;13.360;2022-12-29T12:42:54;10.50;91.30
3756;DHT22;1893;52.526;13.360;2022-12-29T12:48:21;10.60;84.90
3756;DHT22;1893;52.526;13.360;2022-12-29T12:54:00;10.60;1.00
3756;DHT22;1893;52.526;13.360;2022-12-29T12:56:31;10.50;1.00
3756;DHT22;1893;52.526;13.360;2022-12-29T13:24:20;10.90;1.00
3756;DHT22;1893;52.526;13.360;2022-12-29T13:26:52;10.90;93.80
3756;DHT22;1893;52.526;13.360;2022-12-29T13:29:59;10.90;1.00
3756;DHT22;1893;52.526;13.360;2022-12-29T13:38:09;10.90;1.00
3756;DHT22;1893;52.526;13.360;2022-12-29T13:40:40;10.80;1.00
3756;DHT22;1893;52.526;13.360;2022-12-29T13:43:07;10.80;1.00
3756;DHT22;1893;52.526;13.360;2022-12-29T13:45:34;10.90;99.90
3756;DHT22;1893;52.526;13.360;2022-12-29T13:48:12;10.90;99.90
3756;DHT22;1893;52.526;13.360;2022-12-29T13:50:41;10.90;90.70
3756;DHT22;1893;52.526;13.360;2022-12-29T14:04:14;10.90;1.00
3756;DHT22;1893;52.526;13.360;2022-12-29T14:06:40;10.90;1.00
3756;DHT22;1893;52.526;13.360;2022-12-29T14:09:45;10.90;1.00
3756;DHT22;1893;52.526;13.360;2022-12-29T14:15:18;10.80;99.90
3756;DHT22;1893;52.526;13.360;2022-12-29T14:18:03;10.80;99.90
3756;DHT22;1893;52.526;13.360;2022-12-29T14:20:30;10.80;99.90
3756;DHT22;1893;52.526;13.360;2022-12-29T14:23:01;10.70;99.90
3756;DHT22;1893;52.526;13.360;2022-12-29T14:25:58;10.70;99.90
3756;DHT22;1893;52.526;13.360;2022-12-29T14:28:31;10.60;1.00
3756;DHT22;1893;52.526;13.360;2022-12-29T14:30:59;10.60;1.00
3756;DHT22;1893;52.526;13.360;2022-12-29T14:33:27;10.50;1.00
3756;DHT22;1893;52.526;13.360;2022-12-29T14:35:54;10.50;1.00
3756;DHT22;1893;52.526;13.360;2022-12-29T14:38:30;10.50;1.00
3756;DHT22;1893;52.526;13.360;2022-12-29T14:41:24;10.40;1.00
3756;DHT22;1893;52.526;13.360;2022-12-29T14:44:10;10.40;1.00
3756;DHT22;1893;52.526;13.360;2022-12-29T14:49:18;10.50;1.00
3756;DHT22;1893;52.526;13.360;2022-12-29T14:51:44;10.50;1.00
3756;DHT22;1893;52.526;13.360;2022-12-29T14:54:34;10.50;1.00
3756;DHT22;1893;52.526;13.360;2022-12-29T14:57:09;10.50;1.00
3756;DHT22;1893;52.526;13.360;2022-12-29T14:59:39;10.50;1.00
3756;DHT22;1893;52.526;13.360;2022-12-29T15:02:16;10.50;1.00
3756;DHT22;1893;52.526;13.360;2022-12-29T15:04:44;10.50;1.00
3756;DHT22;1893;52.526;13.360;2022-12-29T15:07:11;10.50;1.00
3756;DHT22;1893;52.526;13.360;2022-12-29T15:09:47;10.40;1.00
3756;DHT22;1893;52.526;13.360;2022-12-29T15:14:54;10.70;99.90
3756;DHT22;1893;52.526;13.360;2022-12-29T15:17:33;10.60;99.90
3756;DHT22;1893;52.526;13.360;2022-12-29T15:20:34;10.60;99.90
3756;DHT22;1893;52.526;13.360;2022-12-29T15:22:58;10.60;99.90
3756;DHT22;1893;52.526;13.360;2022-12-29T15:25:25;10.50;1.00
3756;DHT22;1893;52.526;13.360;2022-12-29T15:28:03;10.50;99.90
3756;DHT22;1893;52.526;13.360;2022-12-29T15:30:29;10.40;1.00
3756;DHT22;1893;52.526;13.360;2022-12-29T15:32:55;10.40;99.90
3756;DHT22;1893;52.526;13.360;2022-12-29T15:35:34;10.40;99.90
3756;DHT22;1893;52.526;13.360;2022-12-29T15:38:14;10.30;99.90
3756;DHT22;1893;52.526;13.360;2022-12-29T15:40:43;10.30;1.00
3756;DHT22;1893;52.526;13.360;2022-12-29T15:46:13;10.30;99.90
3756;DHT22;1893;52.526;13.360;2022-12-29T15:48:40;10.10;1.00
3756;DHT22;1893;52.526;13.360;2022-12-29T15:51:21;10.20;99.90
3756;DHT22;1893;52.526;13.360;2022-12-29T15:53:51;10.10;1.00
3756;DHT22;1893;52.526;13.360;2022-12-29T15:56:17;10.10;1.00
3756;DHT22;1893;52.526;13.360;2022-12-29T15:58:46;10.00;1.00
3756;DHT22;1893;52.526;13.360;2022-12-29T16:01:29;10.10;20.00
3756;DHT22;1893;52.526;13.360;2022-12-29T16:03:56;10.10;88.60
3756;DHT22;1893;52.526;13.360;2022-12-29T16:08:58;10.00;1.00
3756;DHT22;1893;52.526;13.360;2022-12-29T16:11:38;10.00;1.00
3756;DHT22;1893;52.526;13.360;2022-12-29T16:14:19;10.10;1.00
3756;DHT22;1893;52.526;13.360;2022-12-29T16:16:47;10.10;99.90
3756;DHT22;1893;52.526;13.360;2022-12-29T16:19:21;10.10;99.90
3756;DHT22;1893;52.526;13.360;2022-12-29T16:21:49;10.20;1.00
3756;DHT22;1893;52.526;13.360;2022-12-29T16:24:18;10.20;1.00
3756;DHT22;1893;52.526;13.360;2022-12-29T16:26:49;10.20;1.00
3756;DHT22;1893;52.526;13.360;2022-12-29T16:29:17;10.20;1.00
3756;DHT22;1893;52.526;13.360;2022-12-29T16:31:55;10.10;1.00
3756;DHT22;1893;52.526;13.360;2022-12-29T16:34:42;10.10;99.90
3756;DHT22;1893;52.526;13.360;2022-12-29T16:37:29;10.10;17.10
3756;DHT22;1893;52.526;13.360;2022-12-29T16:39:55;10.10;1.00
3756;DHT22;1893;52.526;13.360;2022-12-29T16:42:46;10.10;99.90
3756;DHT22;1893;52.526;13.360;2022-12-29T16:50:30;10.20;99.90
3756;DHT22;1893;52.526;13.360;2022-12-29T16:52:56;10.20;99.90
3756;DHT22;1893;52.526;13.360;2022-12-29T16:55:22;10.20;99.90
3756;DHT22;1893;52.526;13.360;2022-12-29T16:57:50;10.40;99.90
3756;DHT22;1893;52.526;13.360;2022-12-29T17:00:21;10.30;99.90
3756;DHT22;1893;52.526;13.360;2022-12-29T17:02:48;10.30;99.90
3756;DHT22;1893;52.526;13.360;2022-12-29T17:05:15;10.40;99.90
3756;DHT22;1893;52.526;13.360;2022-12-29T17:07:41;10.40;99.90
3756;DHT22;1893;52.526;13.360;2022-12-29T17:10:07;10.40;99.90
3756;DHT22;1893;52.526;13.360;2022-12-29T17:12:34;10.40;99.90
3756;DHT22;1893;52.526;13.360;2022-12-29T17:15:06;10.40;99.90
3756;DHT22;1893;52.526;13.360;2022-12-29T17:20:15;10.40;99.90
3756;DHT22;1893;52.526;13.360;2022-12-29T17:22:41;10.50;99.90
3756;DHT22;1893;52.526;13.360;2022-12-29T17:25:10;10.40;99.90
3756;DHT22;1893;52.526;13.360;2022-12-29T17:27:56;10.50;99.90
3756;DHT22;1893;52.526;13.360;2022-12-29T17:30:23;10.60;99.90
3756;DHT22;1893;52.526;13.360;2022-12-29T17:33:01;10.70;99.90
3756;DHT22;1893;52.526;13.360;2022-12-29T17:35:27;10.70;99.90
3756;DHT22;1893;52.526;13.360;2022-12-29T17:37:53;10.70;99.90
3756;DHT22;1893;52.526;13.360;2022-12-29T17:40:24;10.70;99.90
3756;DHT22;1893;52.526;13.360;2022-12-29T17:42:52;10.70;99.90
3756;DHT22;1893;52.526;13.360;2022-12-29T17:45:29;10.70;99.90
3756;DHT22;1893;52.526;13.360;2022-12-29T17:47:56;10.70;99.90
3756;DHT22;1893;52.526;13.360;2022-12-29T17:50:25;10.70;99.90
3756;DHT22;1893;52.526;13.360;2022-12-29T17:52:53;10.70;99.90
3756;DHT22;1893;52.526;13.360;2022-12-29T17:55:22;10.80;99.90
3756;DHT22;1893;52.526;13.360;2022-12-29T17:57:47;10.70;99.90
3756;DHT22;1893;52.526;13.360;2022-12-29T18:00:19;10.70;99.90
3756;DHT22;1893;52.526;13.360;2022-12-29T18:02:46;10.60;99.90
3756;DHT22;1893;52.526;13.360;2022-12-29T18:05:29;10.60;99.90
3756;DHT22;1893;52.526;13.360;2022-12-29T18:07:57;10.60;99.90
3756;DHT22;1893;52.526;13.360;2022-12-29T18:10:25;10.50;99.90
3756;DHT22;1893;52.526;13.360;2022-12-29T18:12:54;10.50;99.90
3756;DHT22;1893;52.526;13.360;2022-12-29T18:15:27;10.40;99.90
3756;DHT22;1893;52.526;13.360;2022-12-29T18:18:13;10.30;99.90
3756;DHT22;1893;52.526;13.360;2022-12-29T18:20:40;10.30;99.90
3756;DHT22;1893;52.526;13.360;2022-12-29T18:23:06;10.30;99.90
3756;DHT22;1893;52.526;13.360;2022-12-29T18:25:45;10.20;99.90
3756;DHT22;1893;52.526;13.360;2022-12-29T18:28:13;10.20;99.90
3756;DHT22;1893;52.526;13.360;2022-12-29T18:30:39;10.20;99.90
3756;DHT22;1893;52.526;13.360;2022-12-29T18:33:05;10.20;99.90
3756;DHT22;1893;52.526;13.360;2022-12-29T18:35:39;10.20;99.90
3756;DHT22;1893;52.526;13.360;2022-12-29T18:38:05;10.20;99.90
3756;DHT22;1893;52.526;13.360;2022-12-29T18:40:32;10.10;99.90
3756;DHT22;1893;52.526;13.360;2022-12-29T18:42:58;10.10;99.90